createdAt,value
2019-03-28T00:00:14.022Z,11.23
2019-03-28T00:02:52.797Z,10.63
2019-03-28T00:05:23.956Z,10.70
2019-03-28T00:07:56.140Z,10.67
2019-03-28T00:10:37.558Z,10.83
2019-03-28T00:13:08.796Z,10.67
2019-03-28T00:15:40.082Z,10.27
2019-03-28T00:18:11.232Z,10.23
2019-03-28T00:20:44.452Z,10.50
2019-03-28T00:23:17.299Z,10.53
2019-03-28T00:25:48.468Z,9.90
2019-03-28T00:28:26.433Z,11.10
2019-03-28T00:30:59.637Z,9.93
2019-03-28T00:33:30.886Z,10.43
2019-03-28T00:36:14.576Z,10.80
2019-03-28T00:38:45.769Z,10.23
2019-03-28T00:41:16.843Z,10.40
2019-03-28T00:43:48.132Z,10.30
2019-03-28T00:46:19.426Z,10.63
2019-03-28T00:48:50.726Z,10.87
2019-03-28T00:51:21.957Z,10.50
2019-03-28T00:53:53.133Z,11.43
2019-03-28T00:56:24.285Z,10.87
2019-03-28T00:58:55.397Z,10.40
2019-03-28T01:01:26.554Z,11.07
2019-03-28T01:03:57.808Z,11.23
2019-03-28T01:06:29.002Z,11.40
2019-03-28T01:09:00.276Z,10.77
2019-03-28T01:11:31.458Z,10.80
2019-03-28T01:14:08.755Z,10.73
2019-03-28T01:16:40.951Z,10.53
2019-03-28T01:19:19.192Z,10.37
2019-03-28T01:21:50.405Z,10.63
2019-03-28T01:24:21.535Z,10.70
2019-03-28T01:26:57.456Z,10.53
2019-03-28T01:29:25.666Z,10.27
2019-03-28T01:32:02.803Z,10.30
2019-03-28T01:34:53.051Z,9.53
2019-03-28T01:37:24.294Z,10.60
2019-03-28T01:39:55.498Z,10.13
2019-03-28T01:42:26.660Z,10.30
2019-03-28T01:44:57.830Z,9.73
2019-03-28T01:47:29.073Z,10.40
2019-03-28T01:50:00.295Z,10.27
2019-03-28T01:55:50.527Z,10.67
2019-03-28T01:58:33.504Z,10.70
2019-03-28T02:01:04.645Z,10.87
2019-03-28T02:03:35.901Z,11.13
2019-03-28T02:06:13.968Z,10.83
2019-03-28T02:08:45.237Z,11.47
2019-03-28T02:11:16.706Z,10.40
2019-03-28T02:13:47.939Z,10.53
2019-03-28T02:16:19.094Z,10.33
2019-03-28T02:18:50.361Z,11.17
2019-03-28T02:21:21.643Z,10.93
2019-03-28T02:23:52.932Z,10.03
2019-03-28T02:26:24.169Z,10.47
2019-03-28T02:28:55.448Z,10.23
2019-03-28T02:31:49.894Z,11.00
2019-03-28T02:34:21.044Z,10.67
2019-03-28T02:36:52.175Z,10.33
2019-03-28T02:39:24.416Z,10.23
2019-03-28T02:41:56.230Z,10.70
2019-03-28T02:44:27.309Z,9.73
2019-03-28T02:47:00.527Z,11.13
2019-03-28T02:49:31.712Z,10.23
2019-03-28T02:52:04.927Z,10.40
2019-03-28T02:54:36.083Z,10.50
2019-03-28T02:57:07.875Z,10.37
2019-03-28T02:59:39.245Z,10.57
2019-03-28T03:02:10.495Z,10.80
2019-03-28T03:04:41.776Z,10.40
2019-03-28T03:07:32.692Z,10.63
2019-03-28T03:10:03.934Z,10.53
2019-03-28T03:12:37.228Z,10.67
2019-03-28T03:15:11.022Z,11.47
2019-03-28T03:17:42.261Z,10.43
2019-03-28T03:20:13.503Z,11.20
2019-03-28T03:22:44.655Z,11.87
2019-03-28T03:25:15.956Z,11.30
2019-03-28T03:27:57.624Z,10.57
2019-03-28T03:30:20.205Z,11.13
2019-03-28T03:32:51.379Z,10.80
2019-03-28T03:35:22.547Z,11.23
2019-03-28T03:37:56.030Z,13.20
2019-03-28T03:40:27.385Z,12.40
2019-03-28T03:43:11.834Z,12.27
2019-03-28T03:45:43.178Z,12.60
2019-03-28T03:48:18.418Z,11.23
2019-03-28T03:50:54.767Z,11.83
2019-03-28T03:53:26.060Z,11.00
2019-03-28T03:55:57.194Z,11.70
2019-03-28T03:58:28.278Z,10.23
2019-03-28T04:01:21.588Z,11.23
2019-03-28T04:03:52.863Z,10.67
2019-03-28T04:06:24.149Z,11.13
2019-03-28T04:08:55.370Z,10.87
2019-03-28T04:11:26.617Z,10.53
2019-03-28T04:13:57.748Z,10.67
2019-03-28T04:16:29.489Z,11.17
2019-03-28T04:19:00.896Z,10.77
2019-03-28T04:21:32.080Z,10.63
2019-03-28T04:24:03.254Z,10.57
2019-03-28T04:26:34.462Z,10.43
2019-03-28T04:29:05.611Z,11.23
2019-03-28T04:31:42.884Z,10.07
2019-03-28T04:34:15.173Z,10.17
2019-03-28T04:36:46.388Z,11.17
2019-03-28T04:39:24.183Z,10.17
2019-03-28T04:42:35.615Z,9.83
2019-03-28T04:45:06.931Z,9.80
2019-03-28T04:47:39.134Z,10.80
2019-03-28T04:50:10.646Z,10.97
2019-03-28T04:52:47.240Z,10.70
2019-03-28T04:55:24.606Z,11.43
2019-03-28T04:57:59.477Z,10.00
2019-03-28T05:00:30.758Z,10.70
2019-03-28T05:03:01.970Z,11.40
2019-03-28T05:05:33.171Z,11.57
2019-03-28T05:08:04.363Z,11.67
2019-03-28T05:10:35.578Z,11.07
2019-03-28T05:13:06.866Z,11.50
2019-03-28T05:15:44.211Z,10.60
2019-03-28T05:18:21.215Z,10.17
2019-03-28T05:20:52.454Z,11.17
2019-03-28T05:23:28.029Z,11.80
2019-03-28T05:26:00.360Z,11.83
2019-03-28T05:28:38.207Z,11.90
2019-03-28T05:31:14.477Z,12.67
2019-03-28T05:33:45.759Z,11.30
2019-03-28T05:36:17.124Z,11.30
2019-03-28T05:38:48.393Z,11.67
2019-03-28T05:41:19.631Z,11.50
2019-03-28T05:43:50.783Z,11.03
2019-03-28T05:46:21.977Z,11.10
2019-03-28T05:48:53.212Z,11.77
2019-03-28T05:51:24.490Z,10.47
2019-03-28T05:53:55.670Z,11.33
2019-03-28T05:56:26.822Z,11.67
2019-03-28T05:59:10.258Z,12.10
2019-03-28T06:01:37.252Z,11.63
2019-03-28T06:04:14.122Z,11.33
2019-03-28T06:06:49.351Z,11.73
2019-03-28T06:09:20.547Z,11.70
2019-03-28T06:11:53.040Z,11.63
2019-03-28T06:14:26.526Z,11.50
2019-03-28T06:16:57.747Z,11.53
2019-03-28T06:19:32.797Z,11.30
2019-03-28T06:22:05.032Z,11.53
2019-03-28T06:24:36.203Z,11.60
2019-03-28T06:27:07.619Z,11.20
2019-03-28T06:29:38.955Z,10.20
2019-03-28T06:32:10.124Z,10.53
2019-03-28T06:34:42.328Z,11.57
2019-03-28T06:37:13.539Z,11.83
2019-03-28T06:39:56.205Z,12.47
2019-03-28T06:42:32.455Z,11.33
2019-03-28T06:45:04.112Z,11.07
2019-03-28T06:47:38.549Z,11.60
2019-03-28T06:50:09.852Z,11.77
2019-03-28T06:52:43.047Z,11.03
2019-03-28T06:55:14.309Z,10.87
2019-03-28T06:57:46.650Z,12.20
2019-03-28T07:00:20.067Z,11.93
2019-03-28T07:02:52.255Z,11.93
2019-03-28T07:05:23.454Z,12.73
2019-03-28T07:07:54.669Z,13.30
2019-03-28T07:10:26.058Z,13.97
2019-03-28T07:12:57.234Z,14.33
2019-03-28T07:15:32.611Z,13.60
2019-03-28T07:18:03.914Z,14.93
2019-03-28T07:20:35.140Z,14.87
2019-03-28T07:23:07.331Z,14.03
2019-03-28T07:25:38.593Z,14.30
2019-03-28T07:28:15.625Z,13.53
2019-03-28T07:30:57.837Z,14.23
2019-03-28T07:33:30.220Z,14.43
2019-03-28T07:36:15.827Z,15.57
2019-03-28T07:38:47.218Z,14.13
2019-03-28T07:41:41.315Z,14.80
2019-03-28T07:44:12.650Z,13.90
2019-03-28T07:46:43.791Z,13.97
2019-03-28T07:49:26.312Z,14.77
2019-03-28T07:51:57.441Z,14.53
2019-03-28T07:54:28.702Z,13.17
2019-03-28T07:57:00.085Z,15.17
2019-03-28T07:59:37.752Z,14.00
2019-03-28T08:02:14.518Z,14.20
2019-03-28T08:04:46.145Z,14.60
2019-03-28T08:07:19.432Z,14.87
2019-03-28T08:09:57.589Z,13.67
2019-03-28T08:12:51.190Z,14.60
2019-03-28T08:15:24.226Z,13.60
2019-03-28T08:17:56.116Z,14.43
2019-03-28T08:20:34.070Z,14.20
2019-03-28T08:23:05.324Z,14.70
2019-03-28T08:25:36.657Z,14.23
2019-03-28T08:28:07.923Z,14.87
2019-03-28T08:30:39.829Z,14.70
2019-03-28T08:33:13.093Z,14.43
2019-03-28T08:35:44.394Z,15.43
2019-03-28T08:38:15.811Z,16.27
2019-03-28T08:40:52.972Z,16.47
2019-03-28T08:43:24.150Z,16.30
2019-03-28T08:45:55.410Z,16.67
2019-03-28T08:48:27.835Z,16.30
2019-03-28T08:51:00.108Z,17.70
2019-03-28T08:53:31.425Z,16.80
2019-03-28T08:56:02.825Z,18.77
2019-03-28T08:58:40.187Z,18.70
2019-03-28T09:01:11.591Z,19.83
2019-03-28T09:03:43.828Z,20.73
2019-03-28T09:06:19.668Z,20.47
2019-03-28T09:09:11.369Z,19.13
2019-03-28T09:11:44.557Z,21.27
2019-03-28T09:14:15.873Z,19.50
2019-03-28T09:16:47.211Z,20.87
2019-03-28T09:19:27.460Z,19.20
2019-03-28T09:21:58.735Z,19.77
2019-03-28T09:24:29.795Z,21.53
2019-03-28T09:27:05.592Z,21.33
2019-03-28T09:29:44.197Z,20.97
2019-03-28T09:32:15.425Z,19.37
2019-03-28T09:34:46.834Z,20.07
2019-03-28T09:37:17.991Z,19.33
2019-03-28T09:39:50.321Z,19.43
2019-03-28T09:42:21.603Z,20.00
2019-03-28T09:44:52.830Z,20.90
2019-03-28T09:47:25.070Z,20.77
2019-03-28T09:49:56.369Z,21.63
2019-03-28T09:52:27.523Z,21.70
2019-03-28T09:54:58.740Z,20.47
2019-03-28T09:57:29.830Z,21.37
2019-03-28T10:00:01.025Z,21.43
2019-03-28T10:02:32.443Z,20.50
2019-03-28T10:05:03.692Z,20.87
2019-03-28T10:07:38.452Z,20.00
2019-03-28T10:10:09.590Z,19.90
2019-03-28T10:12:44.065Z,21.47
2019-03-28T10:15:16.036Z,20.40
2019-03-28T10:17:47.350Z,20.37
2019-03-28T10:20:18.621Z,19.50
2019-03-28T10:22:53.460Z,20.00
2019-03-28T10:25:24.763Z,18.50
2019-03-28T10:27:56.964Z,16.83
2019-03-28T10:30:41.937Z,18.03
2019-03-28T10:33:13.267Z,16.57
2019-03-28T10:35:44.446Z,16.90
2019-03-28T10:38:15.779Z,15.20
2019-03-28T10:40:47.014Z,15.13
2019-03-28T10:43:18.331Z,13.13
2019-03-28T10:45:51.558Z,14.50
2019-03-28T10:48:23.546Z,14.57
2019-03-28T10:51:03.774Z,14.77
2019-03-28T10:53:37.993Z,16.00
2019-03-28T10:56:20.912Z,14.97
2019-03-28T10:58:50.591Z,15.57
2019-03-28T11:01:41.608Z,14.87
2019-03-28T11:04:03.888Z,14.10
2019-03-28T11:06:35.080Z,11.63
2019-03-28T11:09:08.586Z,11.67
2019-03-28T11:11:39.953Z,12.20
2019-03-28T11:14:16.354Z,12.17
2019-03-28T11:16:48.344Z,11.73
2019-03-28T11:19:19.750Z,12.67
2019-03-28T11:21:58.861Z,11.83
2019-03-28T11:24:30.056Z,12.13
2019-03-28T11:27:08.751Z,11.87
2019-03-28T11:29:39.999Z,11.73
2019-03-28T11:32:11.210Z,12.20
2019-03-28T11:34:42.495Z,11.67
2019-03-28T11:37:25.317Z,11.83
2019-03-28T11:39:48.721Z,12.17
2019-03-28T11:42:20.958Z,11.83
2019-03-28T11:44:57.781Z,12.20
2019-03-28T11:47:44.264Z,15.93
2019-03-28T11:50:17.286Z,16.37
2019-03-28T11:52:48.627Z,15.73
2019-03-28T11:55:19.843Z,16.13
2019-03-28T11:57:52.121Z,14.73
2019-03-28T12:00:25.384Z,13.97
2019-03-28T12:02:56.579Z,13.93
2019-03-28T12:05:27.891Z,14.77
2019-03-28T12:08:10.495Z,14.90
2019-03-28T12:10:46.747Z,14.37
2019-03-28T12:13:17.938Z,14.17
2019-03-28T12:15:51.167Z,14.23
2019-03-28T12:18:25.006Z,15.73
2019-03-28T12:20:55.451Z,14.70
2019-03-28T12:23:32.475Z,13.43
2019-03-28T12:26:03.636Z,12.97
2019-03-28T12:28:34.835Z,13.53
2019-03-28T12:31:07.204Z,13.17
2019-03-28T12:33:40.345Z,15.23
2019-03-28T12:36:11.675Z,15.83
2019-03-28T12:38:43.135Z,15.60
2019-03-28T12:41:14.417Z,15.43
2019-03-28T12:43:45.565Z,16.30
2019-03-28T12:46:16.762Z,16.20
2019-03-28T12:48:48.016Z,15.70
2019-03-28T12:51:22.126Z,14.47
2019-03-28T12:53:54.163Z,15.50
2019-03-28T12:56:26.470Z,15.33
2019-03-28T12:58:58.697Z,16.50
2019-03-28T13:01:31.788Z,15.60
2019-03-28T13:04:03.096Z,15.87
2019-03-28T13:06:36.317Z,14.47
2019-03-28T13:09:09.948Z,15.27
2019-03-28T13:11:41.473Z,14.37
2019-03-28T13:14:12.701Z,14.40
2019-03-28T13:16:43.959Z,14.67
2019-03-28T13:19:15.301Z,15.30
2019-03-28T13:21:46.505Z,15.10
2019-03-28T13:24:17.731Z,14.37
2019-03-28T13:26:48.860Z,14.13
2019-03-28T13:29:20.010Z,13.90
2019-03-28T13:32:01.208Z,14.97
2019-03-28T13:34:32.398Z,13.70
2019-03-28T13:37:13.604Z,14.80
2019-03-28T13:39:44.846Z,15.30
2019-03-28T13:42:23.536Z,15.00
2019-03-28T13:44:59.847Z,14.63
2019-03-28T13:47:36.756Z,14.07
2019-03-28T13:50:08.396Z,14.17
2019-03-28T13:52:41.740Z,14.00
2019-03-28T13:55:16.113Z,13.80
2019-03-28T13:57:47.879Z,14.00
2019-03-28T14:00:27.489Z,14.03
2019-03-28T14:02:59.175Z,14.60
2019-03-28T14:05:30.929Z,14.23
2019-03-28T14:08:20.264Z,13.43
2019-03-28T14:10:55.417Z,12.70
2019-03-28T14:13:40.760Z,12.90
2019-03-28T14:16:16.943Z,13.83
2019-03-28T14:18:54.118Z,11.90
2019-03-28T14:21:25.363Z,13.90
2019-03-28T14:23:59.052Z,13.77
2019-03-28T14:26:30.245Z,15.10
2019-03-28T14:29:01.516Z,14.90
2019-03-28T14:31:34.843Z,14.37
2019-03-28T14:34:19.138Z,13.47
2019-03-28T14:36:50.370Z,10.97
2019-03-28T14:39:21.579Z,11.43
2019-03-28T14:41:52.929Z,11.20
2019-03-28T14:44:24.302Z,11.20
2019-03-28T14:46:56.371Z,11.17
2019-03-28T14:49:27.966Z,11.43
2019-03-28T14:52:01.520Z,11.97
2019-03-28T14:54:36.950Z,12.00
2019-03-28T14:57:09.856Z,12.40
2019-03-28T14:59:46.954Z,12.60
2019-03-28T15:02:18.336Z,12.77
2019-03-28T15:04:49.703Z,12.73
2019-03-28T15:07:20.951Z,12.20
2019-03-28T15:09:52.206Z,12.93
2019-03-28T15:12:30.391Z,14.90
2019-03-28T15:15:01.782Z,16.23
2019-03-28T15:17:35.022Z,17.67
2019-03-28T15:20:06.914Z,16.10
2019-03-28T15:22:50.120Z,17.10
2019-03-28T15:25:21.430Z,16.97
2019-03-28T15:27:59.081Z,18.97
2019-03-28T15:30:32.511Z,18.23
2019-03-28T15:33:11.594Z,19.20
2019-03-28T15:35:42.898Z,18.07
2019-03-28T15:38:14.924Z,18.70
2019-03-28T15:40:52.733Z,16.80
2019-03-28T15:43:29.865Z,18.80
2019-03-28T15:46:01.293Z,18.77
2019-03-28T15:48:37.447Z,20.00
2019-03-28T15:51:09.807Z,20.83
2019-03-28T15:53:46.294Z,20.97
2019-03-28T15:56:22.662Z,21.13
2019-03-28T15:58:54.955Z,21.97
2019-03-28T16:01:26.317Z,19.60
2019-03-28T16:04:02.469Z,20.13
2019-03-28T16:06:33.842Z,21.10
2019-03-28T16:09:06.660Z,19.97
2019-03-28T16:12:02.069Z,20.77
2019-03-28T16:14:27.656Z,18.47
2019-03-28T16:16:58.914Z,16.47
2019-03-28T16:19:30.041Z,16.70
2019-03-28T16:22:04.052Z,16.87
2019-03-28T16:24:38.296Z,17.47
2019-03-28T16:27:10.621Z,17.20
2019-03-28T16:29:41.873Z,16.47
2019-03-28T16:32:16.069Z,15.43
2019-03-28T16:35:04.576Z,16.37
2019-03-28T16:37:37.884Z,15.30
2019-03-28T16:40:19.267Z,15.07
2019-03-28T16:43:01.124Z,13.87
2019-03-28T16:45:32.400Z,14.50
2019-03-28T16:48:13.398Z,14.00
2019-03-28T16:50:50.133Z,14.10
2019-03-28T16:53:24.206Z,14.47
2019-03-28T16:56:01.548Z,14.37
2019-03-28T16:58:34.891Z,14.23
2019-03-28T17:01:09.637Z,14.27
2019-03-28T17:03:48.995Z,15.00
2019-03-28T17:06:20.693Z,16.20
2019-03-28T17:09:05.564Z,13.50
2019-03-28T17:11:55.270Z,14.90
2019-03-28T17:14:26.653Z,15.67
2019-03-28T17:16:57.889Z,15.73
2019-03-28T17:19:44.446Z,15.20
2019-03-28T17:22:15.815Z,16.63
2019-03-28T17:24:57.181Z,18.07
2019-03-28T17:27:28.519Z,14.90
2019-03-28T17:30:12.201Z,15.37
2019-03-28T17:32:47.388Z,13.70
2019-03-28T17:35:24.588Z,13.63
2019-03-28T17:37:56.874Z,13.60
2019-03-28T17:40:28.095Z,12.77
2019-03-28T17:43:04.879Z,12.67
2019-03-28T17:45:36.326Z,11.73
2019-03-28T17:48:14.431Z,12.90
2019-03-28T17:50:51.513Z,12.50
2019-03-28T17:53:24.185Z,11.83
2019-03-28T17:55:56.771Z,13.60
2019-03-28T17:58:32.445Z,12.53
2019-03-28T18:01:26.432Z,12.90
2019-03-28T18:04:03.185Z,12.70
2019-03-28T18:06:52.993Z,12.20
2019-03-28T18:09:24.322Z,12.10
2019-03-28T18:11:55.518Z,12.23
2019-03-28T18:14:36.569Z,12.17
2019-03-28T18:17:15.751Z,12.10
2019-03-28T18:19:47.143Z,11.40
2019-03-28T18:22:34.636Z,11.97
2019-03-28T18:25:06.104Z,14.03
2019-03-28T18:27:49.621Z,14.10
2019-03-28T18:30:22.026Z,14.37
2019-03-28T18:32:53.311Z,13.90
2019-03-28T18:35:24.704Z,14.17
2019-03-28T18:37:56.080Z,14.57
2019-03-28T18:40:31.931Z,13.27
2019-03-28T18:43:09.171Z,13.00
2019-03-28T18:45:44.181Z,14.83
2019-03-28T18:48:27.501Z,15.00
2019-03-28T18:50:49.573Z,14.87
2019-03-28T18:53:22.257Z,16.57
2019-03-28T18:56:04.695Z,17.70
2019-03-28T18:58:37.479Z,16.83
2019-03-28T19:01:09.309Z,17.53
2019-03-28T19:03:40.801Z,16.77
2019-03-28T19:06:14.955Z,16.10
2019-03-28T19:08:56.275Z,16.97
2019-03-28T19:11:27.819Z,15.93
2019-03-28T19:14:03.064Z,15.77
2019-03-28T19:16:34.643Z,15.53
2019-03-28T19:19:08.229Z,14.67
2019-03-28T19:21:42.866Z,15.93
2019-03-28T19:24:14.408Z,18.03
2019-03-28T19:26:45.863Z,19.50
2019-03-28T19:29:17.320Z,18.87
2019-03-28T19:31:49.280Z,18.30
2019-03-28T19:34:27.068Z,19.13
2019-03-28T19:37:08.254Z,18.63
2019-03-28T19:39:42.378Z,21.10
2019-03-28T19:42:14.126Z,21.80
2019-03-28T19:44:51.358Z,23.23
2019-03-28T19:47:28.586Z,23.37
2019-03-28T19:49:59.638Z,24.40
2019-03-28T19:52:31.597Z,24.30
2019-03-28T19:55:03.574Z,26.60
2019-03-28T19:57:35.330Z,27.47
2019-03-28T20:00:07.802Z,27.87
2019-03-28T20:02:39.989Z,29.73
2019-03-28T20:05:12.825Z,29.83
2019-03-28T20:07:46.014Z,31.20
2019-03-28T20:10:18.594Z,31.73
2019-03-28T20:12:51.411Z,32.30
2019-03-28T20:15:25.426Z,33.63
2019-03-28T20:17:57.171Z,34.83
2019-03-28T20:20:32.206Z,34.17
2019-03-28T20:23:04.903Z,33.80
2019-03-28T20:25:38.587Z,34.97
2019-03-28T20:28:14.462Z,34.60
2019-03-28T20:30:48.973Z,35.93
2019-03-28T20:33:20.725Z,36.33
2019-03-28T20:36:11.657Z,36.93
2019-03-28T20:38:27.724Z,37.23
2019-03-28T20:40:59.381Z,37.73
2019-03-28T20:43:31.033Z,37.23
2019-03-28T20:46:02.969Z,35.93
2019-03-28T20:48:34.871Z,37.70
2019-03-28T20:51:07.427Z,37.20
2019-03-28T20:53:38.878Z,38.80
2019-03-28T20:56:10.421Z,37.40
2019-03-28T20:58:48.021Z,36.07
2019-03-28T21:01:19.573Z,37.80
2019-03-28T21:03:51.041Z,37.87
2019-03-28T21:06:22.883Z,39.80
2019-03-28T21:08:54.176Z,38.77
2019-03-28T21:11:25.837Z,39.90
2019-03-28T21:13:57.537Z,39.27
2019-03-28T21:16:33.762Z,39.33
2019-03-28T21:19:17.339Z,39.83
2019-03-28T21:21:48.898Z,38.83
2019-03-28T21:24:20.293Z,40.23
2019-03-28T21:26:51.785Z,39.90
2019-03-28T21:29:23.233Z,39.90
2019-03-28T21:32:14.020Z,37.80
2019-03-28T21:34:49.857Z,39.37
2019-03-28T21:37:21.114Z,38.83
2019-03-28T21:39:57.401Z,38.07
2019-03-28T21:42:30.683Z,39.83
2019-03-28T21:45:11.275Z,40.27
2019-03-28T21:47:43.477Z,40.17
2019-03-28T21:50:14.810Z,38.87
2019-03-28T21:52:46.119Z,39.73
2019-03-28T21:55:18.375Z,38.57
2019-03-28T21:58:05.066Z,39.93
2019-03-28T22:00:36.561Z,39.10
2019-03-28T22:03:16.874Z,40.30
2019-03-28T22:05:48.534Z,39.00
2019-03-28T22:08:27.665Z,38.10
2019-03-28T22:10:58.861Z,39.90
2019-03-28T22:13:31.185Z,37.97
2019-03-28T22:16:02.380Z,37.43
2019-03-28T22:18:33.902Z,38.77
2019-03-28T22:21:09.404Z,38.97
2019-03-28T22:23:43.352Z,38.10
2019-03-28T22:26:15.989Z,37.47
2019-03-28T22:28:55.380Z,38.37
2019-03-28T22:31:26.829Z,39.23
2019-03-28T22:33:58.993Z,38.47
2019-03-28T22:36:30.253Z,37.43
2019-03-28T22:39:01.783Z,38.27
2019-03-28T22:41:45.525Z,38.07
2019-03-28T22:44:16.656Z,38.60
2019-03-28T22:46:47.894Z,38.03
2019-03-28T22:49:19.340Z,36.87
2019-03-28T22:51:50.663Z,37.73
2019-03-28T22:54:28.356Z,37.80
2019-03-28T22:57:00.169Z,38.17
2019-03-28T22:59:31.569Z,37.17
2019-03-28T23:02:03.908Z,39.23
2019-03-28T23:04:49.601Z,37.77
2019-03-28T23:07:22.709Z,38.57
2019-03-28T23:09:53.905Z,37.53
2019-03-28T23:12:53.927Z,38.27
2019-03-28T23:15:25.692Z,37.90
2019-03-28T23:17:58.110Z,38.10
2019-03-28T23:20:33.963Z,40.80
2019-03-28T23:23:05.371Z,38.07
2019-03-28T23:25:44.792Z,38.83
2019-03-28T23:28:21.615Z,38.70
2019-03-28T23:30:56.009Z,36.80
2019-03-28T23:33:28.280Z,37.90
2019-03-28T23:39:26.983Z,37.53
2019-03-28T23:42:07.955Z,38.30
2019-03-28T23:45:06.574Z,37.77
2019-03-28T23:47:55.815Z,38.83
2019-03-28T23:50:30.993Z,35.07
2019-03-28T23:53:02.320Z,37.37
2019-03-28T23:55:55.198Z,36.97
2019-03-28T23:58:26.346Z,36.70
